sensor_id;sensor_type;location;lat;lon;timestamp;temperature;humidity
1700;DHT22;847;48.058;7.810;2023-05-07T00:02:06;14.80;99.00
1700;DHT22;847;48.058;7.810;2023-05-07T00:04:33;14.80;99.00
1700;DHT22;847;48.058;7.810;2023-05-07T00:07:03;14.70;99.00
1700;DHT22;847;48.058;7.810;2023-05-07T00:09:30;14.60;99.00
1700;DHT22;847;48.058;7.810;2023-05-07T00:11:56;14.40;99.00
1700;DHT22;847;48.058;7.810;2023-05-07T00:14:23;14.40;99.00
1700;DHT22;847;48.058;7.810;2023-05-07T00:16:51;14.30;99.00
1700;DHT22;847;48.058;7.810;2023-05-07T00:19:18;14.40;99.00
1700;DHT22;847;48.058;7.810;2023-05-07T00:21:45;14.50;99.00
1700;DHT22;847;48.058;7.810;2023-05-07T00:24:12;14.50;99.00
1700;DHT22;847;48.058;7.810;2023-05-07T00:26:38;14.50;99.00
1700;DHT22;847;48.058;7.810;2023-05-07T00:29:05;14.60;99.00
1700;DHT22;847;48.058;7.810;2023-05-07T00:31:32;14.60;99.00
1700;DHT22;847;48.058;7.810;2023-05-07T00:34:00;14.60;99.00
1700;DHT22;847;48.058;7.810;2023-05-07T00:36:27;14.60;99.00
1700;DHT22;847;48.058;7.810;2023-05-07T00:38:56;14.50;99.00
1700;DHT22;847;48.058;7.810;2023-05-07T00:41:23;14.60;99.00
1700;DHT22;847;48.058;7.810;2023-05-07T00:43:50;14.60;99.00
1700;DHT22;847;48.058;7.810;2023-05-07T00:46:20;14.60;99.00
1700;DHT22;847;48.058;7.810;2023-05-07T00:48:47;14.60;99.00
1700;DHT22;847;48.058;7.810;2023-05-07T00:51:15;14.60;99.00
1700;DHT22;847;48.058;7.810;2023-05-07T00:53:43;14.60;99.00
1700;DHT22;847;48.058;7.810;2023-05-07T00:56:10;14.60;99.00
1700;DHT22;847;48.058;7.810;2023-05-07T00:58:38;14.60;99.00
1700;DHT22;847;48.058;7.810;2023-05-07T01:01:05;14.50;99.00
1700;DHT22;847;48.058;7.810;2023-05-07T01:03:31;14.50;99.00
1700;DHT22;847;48.058;7.810;2023-05-07T01:05:59;14.50;99.00
1700;DHT22;847;48.058;7.810;2023-05-07T01:08:28;14.50;99.00
1700;DHT22;847;48.058;7.810;2023-05-07T01:10:56;14.50;99.00
1700;DHT22;847;48.058;7.810;2023-05-07T01:13:24;14.40;99.00
1700;DHT22;847;48.058;7.810;2023-05-07T01:15:51;14.40;99.00
1700;DHT22;847;48.058;7.810;2023-05-07T01:18:18;14.50;99.00
1700;DHT22;847;48.058;7.810;2023-05-07T01:20:45;14.40;99.00
1700;DHT22;847;48.058;7.810;2023-05-07T01:23:13;14.40;99.00
1700;DHT22;847;48.058;7.810;2023-05-07T01:25:40;14.40;99.00
1700;DHT22;847;48.058;7.810;2023-05-07T01:28:07;14.40;99.00
1700;DHT22;847;48.058;7.810;2023-05-07T01:30:34;14.30;99.00
1700;DHT22;847;48.058;7.810;2023-05-07T01:33:04;14.20;99.00
1700;DHT22;847;48.058;7.810;2023-05-07T01:35:36;14.20;99.00
1700;DHT22;847;48.058;7.810;2023-05-07T01:38:04;14.20;99.00
1700;DHT22;847;48.058;7.810;2023-05-07T01:40:33;14.10;99.00
1700;DHT22;847;48.058;7.810;2023-05-07T01:43:01;14.10;99.00
1700;DHT22;847;48.058;7.810;2023-05-07T01:45:30;14.00;99.00
1700;DHT22;847;48.058;7.810;2023-05-07T01:47:58;14.10;99.00
1700;DHT22;847;48.058;7.810;2023-05-07T01:50:25;14.10;99.00
1700;DHT22;847;48.058;7.810;2023-05-07T01:52:52;14.00;99.00
1700;DHT22;847;48.058;7.810;2023-05-07T01:55:19;14.00;99.00
1700;DHT22;847;48.058;7.810;2023-05-07T01:57:47;14.00;99.00
1700;DHT22;847;48.058;7.810;2023-05-07T02:00:14;13.90;99.00
1700;DHT22;847;48.058;7.810;2023-05-07T02:02:41;13.90;99.00
1700;DHT22;847;48.058;7.810;2023-05-07T02:05:08;13.90;99.00
1700;DHT22;847;48.058;7.810;2023-05-07T02:07:35;13.80;99.00
1700;DHT22;847;48.058;7.810;2023-05-07T02:10:02;13.90;99.00
1700;DHT22;847;48.058;7.810;2023-05-07T02:12:29;13.90;99.00
1700;DHT22;847;48.058;7.810;2023-05-07T02:14:57;13.90;99.00
1700;DHT22;847;48.058;7.810;2023-05-07T02:17:24;13.80;99.00
1700;DHT22;847;48.058;7.810;2023-05-07T02:19:50;13.80;99.00
1700;DHT22;847;48.058;7.810;2023-05-07T02:22:17;13.70;99.00
1700;DHT22;847;48.058;7.810;2023-05-07T02:24:44;13.70;99.00
1700;DHT22;847;48.058;7.810;2023-05-07T02:27:11;13.50;99.00
1700;DHT22;847;48.058;7.810;2023-05-07T02:29:38;13.30;99.00
1700;DHT22;847;48.058;7.810;2023-05-07T02:32:06;13.40;99.00
1700;DHT22;847;48.058;7.810;2023-05-07T02:34:32;13.50;99.00
1700;DHT22;847;48.058;7.810;2023-05-07T02:36:59;13.50;99.00
1700;DHT22;847;48.058;7.810;2023-05-07T02:39:26;13.50;99.00
1700;DHT22;847;48.058;7.810;2023-05-07T02:41:53;13.50;99.00
1700;DHT22;847;48.058;7.810;2023-05-07T02:44:19;13.50;99.00
1700;DHT22;847;48.058;7.810;2023-05-07T02:46:46;13.50;99.00
1700;DHT22;847;48.058;7.810;2023-05-07T02:49:14;13.40;99.00
1700;DHT22;847;48.058;7.810;2023-05-07T02:51:41;13.30;99.00
1700;DHT22;847;48.058;7.810;2023-05-07T02:54:10;13.30;99.00
1700;DHT22;847;48.058;7.810;2023-05-07T02:56:37;13.30;99.00
1700;DHT22;847;48.058;7.810;2023-05-07T02:59:04;13.30;99.00
1700;DHT22;847;48.058;7.810;2023-05-07T03:01:30;13.30;99.00
1700;DHT22;847;48.058;7.810;2023-05-07T03:03:57;13.20;99.00
1700;DHT22;847;48.058;7.810;2023-05-07T03:06:25;13.10;99.00
1700;DHT22;847;48.058;7.810;2023-05-07T03:08:52;13.20;99.00
1700;DHT22;847;48.058;7.810;2023-05-07T03:11:19;13.20;99.00
1700;DHT22;847;48.058;7.810;2023-05-07T03:13:46;13.20;99.00
1700;DHT22;847;48.058;7.810;2023-05-07T03:16:15;13.20;99.00
1700;DHT22;847;48.058;7.810;2023-05-07T03:18:42;13.20;99.00
1700;DHT22;847;48.058;7.810;2023-05-07T03:21:08;13.30;99.00
1700;DHT22;847;48.058;7.810;2023-05-07T03:23:36;13.30;99.00
1700;DHT22;847;48.058;7.810;2023-05-07T03:26:03;13.30;99.00
1700;DHT22;847;48.058;7.810;2023-05-07T03:28:30;13.30;99.00
1700;DHT22;847;48.058;7.810;2023-05-07T03:30:56;13.20;99.00
1700;DHT22;847;48.058;7.810;2023-05-07T03:33:24;13.20;99.00
1700;DHT22;847;48.058;7.810;2023-05-07T03:35:50;13.20;99.00
1700;DHT22;847;48.058;7.810;2023-05-07T03:38:17;13.20;99.00
1700;DHT22;847;48.058;7.810;2023-05-07T03:40:45;13.20;99.00
1700;DHT22;847;48.058;7.810;2023-05-07T03:43:12;13.20;99.00
1700;DHT22;847;48.058;7.810;2023-05-07T03:45:38;13.20;99.00
1700;DHT22;847;48.058;7.810;2023-05-07T03:48:05;13.10;99.00
1700;DHT22;847;48.058;7.810;2023-05-07T03:50:32;13.10;99.00
1700;DHT22;847;48.058;7.810;2023-05-07T03:52:58;13.00;99.00
1700;DHT22;847;48.058;7.810;2023-05-07T03:55:25;13.00;99.00
1700;DHT22;847;48.058;7.810;2023-05-07T03:57:53;12.90;99.00
1700;DHT22;847;48.058;7.810;2023-05-07T04:00:22;12.90;99.00
1700;DHT22;847;48.058;7.810;2023-05-07T04:02:48;12.90;99.00
1700;DHT22;847;48.058;7.810;2023-05-07T04:05:15;12.80;99.00
1700;DHT22;847;48.058;7.810;2023-05-07T04:07:42;12.80;99.00
1700;DHT22;847;48.058;7.810;2023-05-07T04:10:10;12.70;99.00
1700;DHT22;847;48.058;7.810;2023-05-07T04:12:36;12.80;99.00
1700;DHT22;847;48.058;7.810;2023-05-07T04:15:05;12.80;99.00
1700;DHT22;847;48.058;7.810;2023-05-07T04:17:32;12.80;99.00
1700;DHT22;847;48.058;7.810;2023-05-07T04:19:59;12.80;99.00
1700;DHT22;847;48.058;7.810;2023-05-07T04:22:26;12.80;99.00
1700;DHT22;847;48.058;7.810;2023-05-07T04:24:52;12.70;99.00
1700;DHT22;847;48.058;7.810;2023-05-07T04:27:19;12.70;99.00
1700;DHT22;847;48.058;7.810;2023-05-07T04:29:46;12.70;99.00
1700;DHT22;847;48.058;7.810;2023-05-07T04:32:14;12.60;99.00
1700;DHT22;847;48.058;7.810;2023-05-07T04:34:41;12.60;99.00
1700;DHT22;847;48.058;7.810;2023-05-07T04:37:08;12.60;99.00
1700;DHT22;847;48.058;7.810;2023-05-07T04:39:35;12.60;99.00
1700;DHT22;847;48.058;7.810;2023-05-07T04:42:01;12.60;99.00
1700;DHT22;847;48.058;7.810;2023-05-07T04:44:28;12.50;99.00
1700;DHT22;847;48.058;7.810;2023-05-07T04:46:56;12.50;99.00
1700;DHT22;847;48.058;7.810;2023-05-07T04:49:24;12.40;99.00
1700;DHT22;847;48.058;7.810;2023-05-07T04:51:51;12.40;99.00
1700;DHT22;847;48.058;7.810;2023-05-07T04:54:17;12.40;99.00
1700;DHT22;847;48.058;7.810;2023-05-07T04:56:44;12.50;99.00
1700;DHT22;847;48.058;7.810;2023-05-07T04:59:11;12.50;99.00
1700;DHT22;847;48.058;7.810;2023-05-07T05:01:37;12.60;99.00
1700;DHT22;847;48.058;7.810;2023-05-07T05:04:05;12.70;99.00
1700;DHT22;847;48.058;7.810;2023-05-07T05:06:33;12.90;99.00
1700;DHT22;847;48.058;7.810;2023-05-07T05:09:00;12.90;99.00
1700;DHT22;847;48.058;7.810;2023-05-07T05:11:27;12.90;99.00
1700;DHT22;847;48.058;7.810;2023-05-07T05:13:53;13.00;99.00
1700;DHT22;847;48.058;7.810;2023-05-07T05:16:20;13.10;99.00
1700;DHT22;847;48.058;7.810;2023-05-07T05:18:47;13.20;99.00
1700;DHT22;847;48.058;7.810;2023-05-07T05:21:14;13.20;99.00
1700;DHT22;847;48.058;7.810;2023-05-07T05:23:42;13.30;99.00
1700;DHT22;847;48.058;7.810;2023-05-07T05:26:08;13.30;99.00
1700;DHT22;847;48.058;7.810;2023-05-07T05:28:35;13.30;99.00
1700;DHT22;847;48.058;7.810;2023-05-07T05:31:02;13.30;99.00
1700;DHT22;847;48.058;7.810;2023-05-07T05:33:29;13.30;99.00
1700;DHT22;847;48.058;7.810;2023-05-07T05:35:55;13.40;99.00
1700;DHT22;847;48.058;7.810;2023-05-07T05:38:22;13.40;99.00
1700;DHT22;847;48.058;7.810;2023-05-07T05:40:50;13.50;99.00
1700;DHT22;847;48.058;7.810;2023-05-07T05:43:17;13.60;99.00
1700;DHT22;847;48.058;7.810;2023-05-07T05:45:43;13.70;99.00
1700;DHT22;847;48.058;7.810;2023-05-07T05:48:10;13.70;99.00
1700;DHT22;847;48.058;7.810;2023-05-07T05:50:37;13.80;99.00
1700;DHT22;847;48.058;7.810;2023-05-07T05:53:04;13.80;99.00
1700;DHT22;847;48.058;7.810;2023-05-07T05:55:30;13.80;99.00
1700;DHT22;847;48.058;7.810;2023-05-07T05:57:59;13.80;99.00
1700;DHT22;847;48.058;7.810;2023-05-07T06:00:26;13.90;99.00
1700;DHT22;847;48.058;7.810;2023-05-07T06:02:53;14.00;99.00
1700;DHT22;847;48.058;7.810;2023-05-07T06:05:20;14.00;99.00
1700;DHT22;847;48.058;7.810;2023-05-07T06:07:47;14.10;99.00
1700;DHT22;847;48.058;7.810;2023-05-07T06:10:13;14.10;99.00
1700;DHT22;847;48.058;7.810;2023-05-07T06:12:40;14.20;99.00
1700;DHT22;847;48.058;7.810;2023-05-07T06:15:09;14.20;99.00
1700;DHT22;847;48.058;7.810;2023-05-07T06:17:36;14.30;99.00
1700;DHT22;847;48.058;7.810;2023-05-07T06:20:03;14.40;99.00
1700;DHT22;847;48.058;7.810;2023-05-07T06:22:30;14.40;99.00
1700;DHT22;847;48.058;7.810;2023-05-07T06:24:57;14.50;99.00
1700;DHT22;847;48.058;7.810;2023-05-07T06:27:24;14.60;99.00
1700;DHT22;847;48.058;7.810;2023-05-07T06:29:50;14.60;99.00
1700;DHT22;847;48.058;7.810;2023-05-07T06:32:19;14.70;99.00
1700;DHT22;847;48.058;7.810;2023-05-07T06:34:45;14.70;99.00
1700;DHT22;847;48.058;7.810;2023-05-07T06:37:12;14.70;99.00
1700;DHT22;847;48.058;7.810;2023-05-07T06:39:39;14.80;99.00
1700;DHT22;847;48.058;7.810;2023-05-07T06:42:05;14.80;99.00
1700;DHT22;847;48.058;7.810;2023-05-07T06:44:32;14.80;99.00
1700;DHT22;847;48.058;7.810;2023-05-07T06:46:59;14.80;99.00
1700;DHT22;847;48.058;7.810;2023-05-07T06:49:27;14.80;99.00
1700;DHT22;847;48.058;7.810;2023-05-07T06:51:54;14.90;99.00
1700;DHT22;847;48.058;7.810;2023-05-07T06:54:21;14.90;99.00
1700;DHT22;847;48.058;7.810;2023-05-07T06:56:47;15.00;99.00
1700;DHT22;847;48.058;7.810;2023-05-07T06:59:14;15.00;99.00
1700;DHT22;847;48.058;7.810;2023-05-07T07:01:41;15.00;99.00
1700;DHT22;847;48.058;7.810;2023-05-07T07:04:08;15.10;99.00
1700;DHT22;847;48.058;7.810;2023-05-07T07:06:36;15.10;99.00
1700;DHT22;847;48.058;7.810;2023-05-07T07:09:02;15.10;99.00
1700;DHT22;847;48.058;7.810;2023-05-07T07:11:29;15.10;99.00
1700;DHT22;847;48.058;7.810;2023-05-07T07:13:56;15.20;99.00
1700;DHT22;847;48.058;7.810;2023-05-07T07:16:22;15.20;99.00
1700;DHT22;847;48.058;7.810;2023-05-07T07:18:49;15.30;99.00
1700;DHT22;847;48.058;7.810;2023-05-07T07:21:16;15.30;99.00
1700;DHT22;847;48.058;7.810;2023-05-07T07:23:44;15.40;99.00
1700;DHT22;847;48.058;7.810;2023-05-07T07:26:11;15.40;99.00
1700;DHT22;847;48.058;7.810;2023-05-07T07:28:42;15.50;99.00
1700;DHT22;847;48.058;7.810;2023-05-07T07:31:09;15.60;99.00
1700;DHT22;847;48.058;7.810;2023-05-07T07:33:36;15.80;99.00
1700;DHT22;847;48.058;7.810;2023-05-07T07:36:03;15.80;99.00
1700;DHT22;847;48.058;7.810;2023-05-07T07:38:30;15.80;99.00
1700;DHT22;847;48.058;7.810;2023-05-07T07:40:58;15.90;99.00
1700;DHT22;847;48.058;7.810;2023-05-07T07:43:25;16.00;99.00
1700;DHT22;847;48.058;7.810;2023-05-07T07:45:52;16.00;99.00
1700;DHT22;847;48.058;7.810;2023-05-07T07:48:18;16.10;99.00
1700;DHT22;847;48.058;7.810;2023-05-07T07:50:48;16.10;99.00
1700;DHT22;847;48.058;7.810;2023-05-07T07:53:15;16.20;99.00
1700;DHT22;847;48.058;7.810;2023-05-07T07:55:42;16.30;99.00
1700;DHT22;847;48.058;7.810;2023-05-07T07:58:10;16.30;99.00
1700;DHT22;847;48.058;7.810;2023-05-07T08:00:37;16.30;99.00
1700;DHT22;847;48.058;7.810;2023-05-07T08:03:03;16.50;99.00
1700;DHT22;847;48.058;7.810;2023-05-07T08:05:31;16.50;99.00
1700;DHT22;847;48.058;7.810;2023-05-07T08:07:58;16.60;99.00
1700;DHT22;847;48.058;7.810;2023-05-07T08:10:25;16.70;99.00
1700;DHT22;847;48.058;7.810;2023-05-07T08:12:52;16.80;99.00
1700;DHT22;847;48.058;7.810;2023-05-07T08:15:20;16.80;99.00
1700;DHT22;847;48.058;7.810;2023-05-07T08:17:46;17.00;97.50
1700;DHT22;847;48.058;7.810;2023-05-07T08:20:14;17.00;97.40
1700;DHT22;847;48.058;7.810;2023-05-07T08:22:40;17.10;96.90
1700;DHT22;847;48.058;7.810;2023-05-07T08:25:08;17.10;97.80
1700;DHT22;847;48.058;7.810;2023-05-07T08:27:35;17.10;98.10
1700;DHT22;847;48.058;7.810;2023-05-07T08:30:02;17.10;97.90
1700;DHT22;847;48.058;7.810;2023-05-07T08:32:30;17.10;99.00
1700;DHT22;847;48.058;7.810;2023-05-07T08:34:56;17.20;98.50
1700;DHT22;847;48.058;7.810;2023-05-07T08:37:23;17.30;98.00
1700;DHT22;847;48.058;7.810;2023-05-07T08:39:50;17.40;97.10
1700;DHT22;847;48.058;7.810;2023-05-07T08:42:17;17.40;97.40
1700;DHT22;847;48.058;7.810;2023-05-07T08:44:45;17.40;95.30
1700;DHT22;847;48.058;7.810;2023-05-07T08:47:13;17.50;95.30
1700;DHT22;847;48.058;7.810;2023-05-07T08:49:41;17.60;94.90
1700;DHT22;847;48.058;7.810;2023-05-07T08:52:08;17.70;95.90
1700;DHT22;847;48.058;7.810;2023-05-07T08:54:37;17.70;96.60
1700;DHT22;847;48.058;7.810;2023-05-07T08:57:04;17.80;94.90
1700;DHT22;847;48.058;7.810;2023-05-07T08:59:30;17.80;95.90
1700;DHT22;847;48.058;7.810;2023-05-07T09:01:57;17.90;97.20
1700;DHT22;847;48.058;7.810;2023-05-07T09:04:24;17.90;97.90
1700;DHT22;847;48.058;7.810;2023-05-07T09:06:52;18.00;96.70
1700;DHT22;847;48.058;7.810;2023-05-07T09:09:19;18.00;98.20
1700;DHT22;847;48.058;7.810;2023-05-07T09:11:47;18.00;98.00
1700;DHT22;847;48.058;7.810;2023-05-07T09:14:14;18.20;97.30
1700;DHT22;847;48.058;7.810;2023-05-07T09:16:41;18.30;96.10
1700;DHT22;847;48.058;7.810;2023-05-07T09:19:07;18.40;96.00
1700;DHT22;847;48.058;7.810;2023-05-07T09:21:35;18.50;96.10
1700;DHT22;847;48.058;7.810;2023-05-07T09:24:03;18.60;95.90
1700;DHT22;847;48.058;7.810;2023-05-07T09:26:30;18.50;96.30
1700;DHT22;847;48.058;7.810;2023-05-07T09:28:58;18.60;96.10
1700;DHT22;847;48.058;7.810;2023-05-07T09:31:25;18.70;96.50
1700;DHT22;847;48.058;7.810;2023-05-07T09:33:52;18.70;96.80
1700;DHT22;847;48.058;7.810;2023-05-07T09:36:21;18.70;96.40
1700;DHT22;847;48.058;7.810;2023-05-07T09:38:48;18.70;96.00
1700;DHT22;847;48.058;7.810;2023-05-07T09:41:17;18.70;96.20
1700;DHT22;847;48.058;7.810;2023-05-07T09:43:44;18.80;96.20
1700;DHT22;847;48.058;7.810;2023-05-07T09:46:13;18.80;95.50
1700;DHT22;847;48.058;7.810;2023-05-07T09:48:43;18.90;96.00
1700;DHT22;847;48.058;7.810;2023-05-07T09:51:18;18.90;96.00
1700;DHT22;847;48.058;7.810;2023-05-07T09:53:48;18.90;95.90
1700;DHT22;847;48.058;7.810;2023-05-07T09:56:19;19.00;96.90
1700;DHT22;847;48.058;7.810;2023-05-07T09:58:46;19.20;94.20
1700;DHT22;847;48.058;7.810;2023-05-07T10:01:13;19.30;95.10
1700;DHT22;847;48.058;7.810;2023-05-07T10:03:41;19.30;94.40
1700;DHT22;847;48.058;7.810;2023-05-07T10:06:09;19.20;93.80
1700;DHT22;847;48.058;7.810;2023-05-07T10:08:36;19.20;94.20
1700;DHT22;847;48.058;7.810;2023-05-07T10:11:04;19.20;95.00
1700;DHT22;847;48.058;7.810;2023-05-07T10:13:32;19.20;96.10
1700;DHT22;847;48.058;7.810;2023-05-07T10:16:01;19.20;96.70
1700;DHT22;847;48.058;7.810;2023-05-07T10:18:30;19.20;95.30
1700;DHT22;847;48.058;7.810;2023-05-07T10:21:02;19.10;95.50
1700;DHT22;847;48.058;7.810;2023-05-07T10:23:31;19.00;94.70
1700;DHT22;847;48.058;7.810;2023-05-07T10:26:00;18.80;93.60
1700;DHT22;847;48.058;7.810;2023-05-07T10:28:30;18.70;94.30
1700;DHT22;847;48.058;7.810;2023-05-07T10:31:09;18.60;95.20
1700;DHT22;847;48.058;7.810;2023-05-07T10:33:43;18.50;96.60
1700;DHT22;847;48.058;7.810;2023-05-07T10:36:11;18.50;96.70
1700;DHT22;847;48.058;7.810;2023-05-07T10:38:38;18.40;97.10
1700;DHT22;847;48.058;7.810;2023-05-07T10:41:06;18.40;97.00
1700;DHT22;847;48.058;7.810;2023-05-07T10:43:40;18.30;97.90
1700;DHT22;847;48.058;7.810;2023-05-07T10:46:14;18.30;98.10
1700;DHT22;847;48.058;7.810;2023-05-07T10:49:11;18.20;98.80
1700;DHT22;847;48.058;7.810;2023-05-07T10:51:38;18.10;99.00
1700;DHT22;847;48.058;7.810;2023-05-07T10:54:21;18.00;99.00
1700;DHT22;847;48.058;7.810;2023-05-07T10:56:49;18.00;99.00
1700;DHT22;847;48.058;7.810;2023-05-07T10:59:40;17.90;99.00
1700;DHT22;847;48.058;7.810;2023-05-07T11:02:10;17.80;99.00
1700;DHT22;847;48.058;7.810;2023-05-07T11:04:39;17.80;99.00
1700;DHT22;847;48.058;7.810;2023-05-07T11:07:34;17.70;99.00
1700;DHT22;847;48.058;7.810;2023-05-07T11:10:03;17.70;99.00
1700;DHT22;847;48.058;7.810;2023-05-07T11:12:49;17.70;99.00
1700;DHT22;847;48.058;7.810;2023-05-07T11:15:38;17.70;99.00
1700;DHT22;847;48.058;7.810;2023-05-07T11:18:08;17.80;99.00
1700;DHT22;847;48.058;7.810;2023-05-07T11:20:53;17.80;99.00
1700;DHT22;847;48.058;7.810;2023-05-07T11:23:57;17.90;99.00
1700;DHT22;847;48.058;7.810;2023-05-07T11:26:25;17.90;99.00
1700;DHT22;847;48.058;7.810;2023-05-07T11:28:52;18.00;99.00
1700;DHT22;847;48.058;7.810;2023-05-07T11:31:24;18.00;99.00
1700;DHT22;847;48.058;7.810;2023-05-07T11:33:53;18.00;99.00
1700;DHT22;847;48.058;7.810;2023-05-07T11:36:22;18.10;99.00
1700;DHT22;847;48.058;7.810;2023-05-07T11:38:49;18.10;99.00
1700;DHT22;847;48.058;7.810;2023-05-07T11:41:16;18.10;99.00
1700;DHT22;847;48.058;7.810;2023-05-07T11:43:55;18.20;99.00
1700;DHT22;847;48.058;7.810;2023-05-07T11:46:22;18.20;99.00
1700;DHT22;847;48.058;7.810;2023-05-07T11:48:49;18.10;99.00
1700;DHT22;847;48.058;7.810;2023-05-07T11:51:20;18.10;99.00
1700;DHT22;847;48.058;7.810;2023-05-07T11:53:48;18.20;99.00
1700;DHT22;847;48.058;7.810;2023-05-07T11:56:16;18.20;99.00
1700;DHT22;847;48.058;7.810;2023-05-07T11:58:44;18.30;99.00
1700;DHT22;847;48.058;7.810;2023-05-07T12:01:13;18.30;99.00
1700;DHT22;847;48.058;7.810;2023-05-07T12:03:41;18.30;99.00
1700;DHT22;847;48.058;7.810;2023-05-07T12:06:09;18.40;99.00
1700;DHT22;847;48.058;7.810;2023-05-07T12:08:38;18.40;99.00
1700;DHT22;847;48.058;7.810;2023-05-07T12:11:07;18.40;99.00
1700;DHT22;847;48.058;7.810;2023-05-07T12:13:35;18.40;99.00
1700;DHT22;847;48.058;7.810;2023-05-07T12:16:02;18.40;99.00
1700;DHT22;847;48.058;7.810;2023-05-07T12:18:30;18.40;99.00
1700;DHT22;847;48.058;7.810;2023-05-07T12:20:57;18.40;99.00
1700;DHT22;847;48.058;7.810;2023-05-07T12:23:25;18.40;99.00
1700;DHT22;847;48.058;7.810;2023-05-07T12:25:54;18.50;99.00
1700;DHT22;847;48.058;7.810;2023-05-07T12:28:20;18.50;99.00
1700;DHT22;847;48.058;7.810;2023-05-07T12:30:48;18.70;99.00
1700;DHT22;847;48.058;7.810;2023-05-07T12:33:17;18.80;99.00
1700;DHT22;847;48.058;7.810;2023-05-07T12:35:47;18.70;99.00
1700;DHT22;847;48.058;7.810;2023-05-07T12:38:16;18.80;99.00
1700;DHT22;847;48.058;7.810;2023-05-07T12:40:44;18.80;99.00
1700;DHT22;847;48.058;7.810;2023-05-07T12:43:17;18.90;99.00
1700;DHT22;847;48.058;7.810;2023-05-07T12:45:45;18.80;99.00
1700;DHT22;847;48.058;7.810;2023-05-07T12:48:13;18.90;99.00
1700;DHT22;847;48.058;7.810;2023-05-07T12:50:40;19.00;99.00
1700;DHT22;847;48.058;7.810;2023-05-07T12:53:07;19.00;99.00
1700;DHT22;847;48.058;7.810;2023-05-07T12:55:41;19.10;99.00
1700;DHT22;847;48.058;7.810;2023-05-07T12:58:07;19.10;99.00
1700;DHT22;847;48.058;7.810;2023-05-07T13:00:37;19.10;99.00
1700;DHT22;847;48.058;7.810;2023-05-07T13:03:04;19.10;99.00
1700;DHT22;847;48.058;7.810;2023-05-07T13:05:32;19.10;99.00
1700;DHT22;847;48.058;7.810;2023-05-07T13:07:59;19.10;99.00
1700;DHT22;847;48.058;7.810;2023-05-07T13:10:26;19.10;99.00
1700;DHT22;847;48.058;7.810;2023-05-07T13:12:53;19.10;99.00
1700;DHT22;847;48.058;7.810;2023-05-07T13:15:20;19.10;99.00
1700;DHT22;847;48.058;7.810;2023-05-07T13:17:48;19.20;99.00
1700;DHT22;847;48.058;7.810;2023-05-07T13:20:15;19.10;99.00
1700;DHT22;847;48.058;7.810;2023-05-07T13:22:42;19.10;99.00
1700;DHT22;847;48.058;7.810;2023-05-07T13:25:09;19.00;98.70
1700;DHT22;847;48.058;7.810;2023-05-07T13:27:36;19.00;99.00
1700;DHT22;847;48.058;7.810;2023-05-07T13:30:04;19.10;99.00
1700;DHT22;847;48.058;7.810;2023-05-07T13:32:31;19.00;98.60
1700;DHT22;847;48.058;7.810;2023-05-07T13:34:59;19.00;98.60
1700;DHT22;847;48.058;7.810;2023-05-07T13:37:26;19.00;99.00
1700;DHT22;847;48.058;7.810;2023-05-07T13:39:52;19.00;99.00
1700;DHT22;847;48.058;7.810;2023-05-07T13:42:19;19.00;99.00
1700;DHT22;847;48.058;7.810;2023-05-07T13:44:46;19.00;99.00
1700;DHT22;847;48.058;7.810;2023-05-07T13:47:12;19.00;99.00
1700;DHT22;847;48.058;7.810;2023-05-07T13:49:39;18.90;99.00
1700;DHT22;847;48.058;7.810;2023-05-07T13:52:07;18.90;99.00
1700;DHT22;847;48.058;7.810;2023-05-07T13:54:34;19.00;99.00
1700;DHT22;847;48.058;7.810;2023-05-07T13:57:01;18.90;99.00
1700;DHT22;847;48.058;7.810;2023-05-07T13:59:28;19.00;99.00
1700;DHT22;847;48.058;7.810;2023-05-07T14:01:54;19.00;99.00
1700;DHT22;847;48.058;7.810;2023-05-07T14:04:21;19.10;99.00
1700;DHT22;847;48.058;7.810;2023-05-07T14:06:48;19.10;97.60
1700;DHT22;847;48.058;7.810;2023-05-07T14:09:16;19.10;95.30
1700;DHT22;847;48.058;7.810;2023-05-07T14:11:43;19.20;94.80
1700;DHT22;847;48.058;7.810;2023-05-07T14:14:10;19.20;93.40
1700;DHT22;847;48.058;7.810;2023-05-07T14:16:37;19.20;92.30
1700;DHT22;847;48.058;7.810;2023-05-07T14:19:04;19.20;93.40
1700;DHT22;847;48.058;7.810;2023-05-07T14:21:31;19.20;92.60
1700;DHT22;847;48.058;7.810;2023-05-07T14:23:57;19.30;93.70
1700;DHT22;847;48.058;7.810;2023-05-07T14:26:26;19.40;93.90
1700;DHT22;847;48.058;7.810;2023-05-07T14:28:53;19.40;93.20
1700;DHT22;847;48.058;7.810;2023-05-07T14:31:22;19.40;92.80
1700;DHT22;847;48.058;7.810;2023-05-07T14:33:49;19.40;94.20
1700;DHT22;847;48.058;7.810;2023-05-07T14:36:16;19.40;96.20
1700;DHT22;847;48.058;7.810;2023-05-07T14:38:43;19.50;95.60
1700;DHT22;847;48.058;7.810;2023-05-07T14:41:10;19.60;96.60
1700;DHT22;847;48.058;7.810;2023-05-07T14:43:38;19.70;97.10
1700;DHT22;847;48.058;7.810;2023-05-07T14:46:05;19.70;96.90
1700;DHT22;847;48.058;7.810;2023-05-07T14:48:31;19.70;96.00
1700;DHT22;847;48.058;7.810;2023-05-07T14:50:58;19.70;95.50
1700;DHT22;847;48.058;7.810;2023-05-07T14:53:25;19.70;96.70
1700;DHT22;847;48.058;7.810;2023-05-07T14:55:52;19.70;96.20
1700;DHT22;847;48.058;7.810;2023-05-07T14:58:18;19.70;95.60
1700;DHT22;847;48.058;7.810;2023-05-07T15:00:49;19.70;94.50
1700;DHT22;847;48.058;7.810;2023-05-07T15:03:18;19.60;95.10
1700;DHT22;847;48.058;7.810;2023-05-07T15:05:45;19.60;94.80
1700;DHT22;847;48.058;7.810;2023-05-07T15:08:11;19.60;95.80
1700;DHT22;847;48.058;7.810;2023-05-07T15:10:38;19.60;95.40
1700;DHT22;847;48.058;7.810;2023-05-07T15:13:07;19.70;97.10
1700;DHT22;847;48.058;7.810;2023-05-07T15:15:34;19.70;94.40
1700;DHT22;847;48.058;7.810;2023-05-07T15:18:02;19.70;95.60
1700;DHT22;847;48.058;7.810;2023-05-07T15:20:29;19.90;95.70
1700;DHT22;847;48.058;7.810;2023-05-07T15:22:56;20.00;94.80
1700;DHT22;847;48.058;7.810;2023-05-07T15:25:23;19.90;94.70
1700;DHT22;847;48.058;7.810;2023-05-07T15:27:50;19.90;95.20
1700;DHT22;847;48.058;7.810;2023-05-07T15:30:18;19.90;96.30
1700;DHT22;847;48.058;7.810;2023-05-07T15:32:46;19.90;95.10
1700;DHT22;847;48.058;7.810;2023-05-07T15:35:14;19.90;94.30
1700;DHT22;847;48.058;7.810;2023-05-07T15:37:41;19.90;94.50
1700;DHT22;847;48.058;7.810;2023-05-07T15:40:08;20.00;95.40
1700;DHT22;847;48.058;7.810;2023-05-07T15:42:39;20.10;95.30
1700;DHT22;847;48.058;7.810;2023-05-07T15:45:07;20.10;93.80
1700;DHT22;847;48.058;7.810;2023-05-07T15:47:34;20.10;94.30
1700;DHT22;847;48.058;7.810;2023-05-07T15:50:01;20.20;94.20
1700;DHT22;847;48.058;7.810;2023-05-07T15:52:30;20.20;93.50
1700;DHT22;847;48.058;7.810;2023-05-07T15:54:57;20.20;93.60
1700;DHT22;847;48.058;7.810;2023-05-07T15:57:26;20.10;93.00
1700;DHT22;847;48.058;7.810;2023-05-07T15:59:54;20.00;92.70
1700;DHT22;847;48.058;7.810;2023-05-07T16:02:22;20.10;96.00
1700;DHT22;847;48.058;7.810;2023-05-07T16:04:48;20.10;95.40
1700;DHT22;847;48.058;7.810;2023-05-07T16:07:18;20.20;95.10
1700;DHT22;847;48.058;7.810;2023-05-07T16:09:46;20.20;95.00
1700;DHT22;847;48.058;7.810;2023-05-07T16:12:13;20.20;95.20
1700;DHT22;847;48.058;7.810;2023-05-07T16:14:42;20.20;95.30
1700;DHT22;847;48.058;7.810;2023-05-07T16:17:10;20.20;93.70
1700;DHT22;847;48.058;7.810;2023-05-07T16:19:39;20.20;92.80
1700;DHT22;847;48.058;7.810;2023-05-07T16:22:09;20.10;93.10